Time;durP1;ratioP1;P1;durP2;ratioP2;P2;SDS_P1;SDS_P2;PMS_P1;PMS_P2;Temp;Humidity;BMP_temperature;BMP_pressure;BME280_temperature;BME280_humidity;BME280_pressure;Samples;Min_cycle;Max_cycle;Signal;HPM_P1;HPM_P2
2022/08/04 00:00:27;;;;;;;2.55;1.90;;;21.40;99.90;;;;;;5011131;28;20477;-93
2022/08/04 00:03:15;;;;;;;2.88;2.08;;;21.20;99.90;;;;;;5010905;28;20037;-93
2022/08/04 00:06:03;;;;;;;4.80;2.30;;;21.10;99.90;;;;;;5015612;28;20026;-93
2022/08/04 00:08:47;;;;;;;5.75;2.47;;;20.90;99.90;;;;;;4999785;28;20428;-93
2022/08/04 00:11:19;;;;;;;4.03;2.47;;;20.70;99.90;;;;;;5004813;28;20084;-92
2022/08/04 00:13:48;;;;;;;;;;;20.70;99.90;;;;;;5032152;28;20079;-93
2022/08/04 00:16:14;;;;;;;3.22;2.42;;;20.70;99.90;;;;;;5015909;28;19910;-93
2022/08/04 00:18:55;;;;;;;3.00;2.20;;;20.60;99.90;;;;;;5004985;28;20544;-94
2022/08/04 00:21:24;;;;;;;4.10;2.15;;;20.60;99.90;;;;;;5010976;28;20030;-93
2022/08/04 00:23:51;;;;;;;3.42;2.30;;;20.50;99.90;;;;;;5005107;28;20068;-94
2022/08/04 00:26:18;;;;;;;3.13;2.40;;;20.40;99.90;;;;;;5016651;28;20397;-95
2022/08/04 00:28:44;;;;;;;2.90;2.33;;;20.30;99.90;;;;;;5009159;28;20036;-95
2022/08/04 00:31:10;;;;;;;2.92;2.20;;;20.20;99.90;;;;;;5017704;28;20025;-93
2022/08/04 00:33:37;;;;;;;3.45;2.80;;;20.10;99.90;;;;;;5011336;28;20117;-94
2022/08/04 00:36:03;;;;;;;3.20;2.00;;;20.10;99.90;;;;;;5019271;28;20022;-93
2022/08/04 00:42:36;;;;;;;3.13;2.50;;;20.00;99.90;;;;;;5028181;28;20060;-94
2022/08/04 00:45:17;;;;;;;4.97;2.47;;;19.90;99.90;;;;;;5018099;28;20033;-92
2022/08/04 00:48:27;;;;;;;5.03;2.30;;;19.80;99.90;;;;;;5016526;28;20469;-94
2022/08/04 00:51:08;;;;;;;2.80;2.20;;;19.80;99.90;;;;;;5016099;28;20280;-92
2022/08/04 00:53:49;;;;;;;2.78;2.33;;;19.70;99.90;;;;;;5018996;28;20034;-93
2022/08/04 00:56:15;;;;;;;2.53;2.22;;;19.70;99.90;;;;;;5007672;28;20035;-92
2022/08/04 00:59:10;;;;;;;2.80;2.35;;;19.60;99.90;;;;;;5015140;28;20053;-93
2022/08/04 01:02:00;;;;;;;4.22;2.45;;;19.60;99.90;;;;;;5012518;28;20026;-93
2022/08/04 01:04:41;;;;;;;3.58;2.65;;;19.60;99.90;;;;;;5014613;28;20385;-94
2022/08/04 01:07:30;;;;;;;2.50;2.30;;;19.50;99.90;;;;;;5012782;28;20022;-94
2022/08/04 01:10:34;;;;;;;3.33;2.42;;;19.50;99.90;;;;;;5015868;28;20048;-93
2022/08/04 01:13:18;;;;;;;2.35;2.15;;;19.50;99.90;;;;;;5015018;28;20022;-93
2022/08/04 01:15:58;;;;;;;3.15;2.33;;;19.40;99.90;;;;;;5010604;28;20461;-94
2022/08/04 01:18:52;;;;;;;3.20;2.20;;;19.40;99.90;;;;;;5012544;28;20026;-94
2022/08/04 01:21:30;;;;;;;3.95;2.47;;;19.40;99.90;;;;;;5008727;28;20032;-93
2022/08/04 01:24:04;;;;;;;2.30;2.03;;;19.30;99.90;;;;;;5018696;28;20125;-92
2022/08/04 01:26:36;;;;;;;2.97;2.15;;;19.30;99.90;;;;;;5019124;28;20079;-93
2022/08/04 01:29:05;;;;;;;2.50;2.22;;;19.30;99.90;;;;;;5008009;28;20469;-93
2022/08/04 01:31:56;;;;;;;3.50;2.30;;;19.30;99.90;;;;;;5019148;28;20049;-94
2022/08/04 01:34:25;;;;;;;3.63;2.40;;;19.40;99.90;;;;;;5008500;28;20072;-93
2022/08/04 01:37:11;;;;;;;3.50;2.00;;;19.50;99.90;;;;;;5018035;28;20045;-92
2022/08/04 01:39:58;;;;;;;3.70;2.25;;;19.50;99.90;;;;;;5015528;28;20125;-94
2022/08/04 01:42:25;;;;;;;3.92;2.20;;;19.60;99.90;;;;;;5008800;28;20085;-94
2022/08/04 01:44:54;;;;;;;8.73;2.20;;;19.60;99.90;;;;;;5004924;28;20033;-94
2022/08/04 01:47:20;;;;;;;2.92;2.30;;;19.70;99.90;;;;;;5016749;28;20022;-95
2022/08/04 01:49:48;;;;;;;2.33;2.13;;;19.70;99.90;;;;;;5021438;28;20029;-94
2022/08/04 01:52:16;;;;;;;2.58;2.30;;;19.80;99.90;;;;;;5023064;28;20030;-94
2022/08/04 01:54:42;;;;;;;3.45;2.35;;;19.80;99.90;;;;;;5022094;28;20029;-95
2022/08/04 01:57:14;;;;;;;4.50;2.25;;;19.90;99.90;;;;;;5012890;28;20026;-95
2022/08/04 01:59:44;;;;;;;3.83;2.47;;;19.90;99.90;;;;;;5012404;28;20056;-95
2022/08/04 02:02:10;;;;;;;2.90;2.50;;;19.90;99.90;;;;;;5014399;28;20049;-93
2022/08/04 02:04:36;;;;;;;4.05;2.35;;;19.90;99.90;;;;;;5009737;28;20025;-93
2022/08/04 02:07:26;;;;;;;3.72;2.13;;;19.90;99.90;;;;;;5022041;28;20033;-94
2022/08/04 02:10:01;;;;;;;5.60;2.78;;;19.80;99.90;;;;;;5011098;28;20557;-94
2022/08/04 02:12:44;;;;;;;2.47;2.10;;;19.70;99.90;;;;;;5017361;28;20034;-94
2022/08/04 02:15:30;;;;;;;3.17;2.28;;;19.70;99.90;;;;;;5018224;28;20492;-94
2022/08/04 02:18:10;;;;;;;3.17;2.13;;;19.50;99.90;;;;;;5005195;28;20037;-95
2022/08/04 02:20:45;;;;;;;3.53;2.42;;;19.50;99.90;;;;;;5020579;28;20109;-94
2022/08/04 02:26:34;;;;;;;3.58;2.20;;;19.60;99.90;;;;;;5030387;28;20040;-93
2022/08/04 02:29:15;;;;;;;3.20;2.05;;;19.60;99.90;;;;;;5022401;28;20025;-94
2022/08/04 02:31:55;;;;;;;3.85;2.00;;;19.60;99.90;;;;;;5020292;28;20389;-94
2022/08/04 02:34:26;;;;;;;2.88;2.33;;;19.50;99.90;;;;;;5014735;28;20069;-93
2022/08/04 02:36:53;;;;;;;;;;;19.50;99.90;;;;;;5030166;28;20049;-94
2022/08/04 02:39:20;;;;;;;5.35;2.60;;;19.50;99.90;;;;;;5031244;28;20324;-94
2022/08/04 02:41:48;;;;;;;3.72;2.15;;;19.40;99.90;;;;;;5023852;28;20127;-94
2022/08/04 02:44:21;;;;;;;2.35;2.15;;;19.30;99.90;;;;;;5019706;28;20029;-94
2022/08/04 02:46:51;;;;;;;2.50;2.05;;;19.30;99.90;;;;;;5017991;28;20065;-95
2022/08/04 02:49:19;;;;;;;2.90;1.90;;;19.20;99.90;;;;;;5014800;28;20065;-94
2022/08/04 02:51:52;;;;;;;4.80;2.28;;;19.20;99.90;;;;;;5006537;28;20469;-95
2022/08/04 02:54:32;;;;;;;2.83;2.28;;;19.30;99.90;;;;;;5012182;28;20045;-94
2022/08/04 02:56:59;;;;;;;9.05;2.22;;;19.30;99.90;;;;;;5012719;28;20040;-95
2022/08/04 02:59:26;;;;;;;3.60;2.05;;;19.40;99.90;;;;;;5007287;28;20028;-94
2022/08/04 03:01:55;;;;;;;3.75;2.13;;;19.50;99.90;;;;;;5020525;28;20107;-95
2022/08/04 03:04:39;;;;;;;2.65;2.17;;;19.60;99.90;;;;;;5022119;28;20030;-95
2022/08/04 03:07:24;;;;;;;9.68;2.38;;;19.70;99.90;;;;;;5016123;28;20367;-93
2022/08/04 03:10:25;;;;;;;2.88;2.25;;;19.90;99.90;;;;;;5018665;28;20030;-94
2022/08/04 03:12:57;;;;;;;2.45;2.15;;;20.00;99.90;;;;;;5016239;28;20567;-96
2022/08/04 03:15:56;;;;;;;2.63;2.15;;;20.00;99.90;;;;;;5017430;28;20425;-93
2022/08/04 03:18:43;;;;;;;2.80;2.22;;;20.00;99.90;;;;;;5013910;28;20089;-94
2022/08/04 03:21:14;;;;;;;3.42;2.13;;;20.00;99.90;;;;;;5010619;28;20037;-96
2022/08/04 03:23:49;;;;;;;3.47;2.58;;;20.00;99.90;;;;;;5019678;28;20121;-93
2022/08/04 03:26:39;;;;;;;2.28;2.05;;;20.10;99.90;;;;;;5008381;28;20068;-94
2022/08/04 03:29:20;;;;;;;3.47;2.63;;;20.10;99.90;;;;;;5007429;28;20030;-93
2022/08/04 03:32:00;;;;;;;4.25;1.95;;;20.20;99.90;;;;;;5019402;28;20022;-94
2022/08/04 03:34:55;;;;;;;6.40;2.80;;;20.10;99.90;;;;;;5018229;28;20029;-94
2022/08/04 03:37:43;;;;;;;3.70;1.98;;;20.10;99.90;;;;;;5008033;28;20022;-93
2022/08/04 03:40:21;;;;;;;4.00;1.98;;;20.00;99.90;;;;;;5012714;28;20022;-94
2022/08/04 03:43:17;;;;;;;4.60;2.00;;;19.90;99.90;;;;;;5016648;28;20036;-93
2022/08/04 03:46:01;;;;;;;2.22;1.92;;;19.80;99.90;;;;;;5016683;28;20036;-95
2022/08/04 03:48:48;;;;;;;2.75;1.90;;;19.80;99.90;;;;;;5021490;28;20030;-94
2022/08/04 03:55:04;;;;;;;6.15;1.80;;;19.70;99.90;;;;;;5006537;28;20125;-93
2022/08/04 03:58:09;;;;;;;3.00;1.90;;;19.60;99.90;;;;;;5021561;28;20612;-93
2022/08/04 04:00:44;;;;;;;7.57;1.90;;;19.60;99.90;;;;;;5028290;28;20055;-93
2022/08/04 04:03:58;;;;;;;4.07;2.10;;;19.90;99.90;;;;;;5015252;28;20044;-89
2022/08/04 04:06:33;;;;;;;3.50;1.55;;;20.10;99.90;;;;;;5016157;28;20474;-89
2022/08/04 04:09:56;;;;;;;2.55;1.88;;;20.20;99.90;;;;;;5024944;28;20029;-88
2022/08/04 04:12:50;;;;;;;4.32;1.70;;;20.40;99.90;;;;;;4974583;28;20069;-89
2022/08/04 04:15:52;;;;;;;2.88;2.05;;;20.40;99.90;;;;;;4973633;28;20027;-91
2022/08/04 04:18:20;;;;;;;3.88;1.50;;;20.50;99.90;;;;;;5018501;28;20038;-90
2022/08/04 04:24:58;;;;;;;3.13;1.95;;;20.60;99.90;;;;;;5025409;28;20028;-89
2022/08/04 04:27:26;;;;;;;4.90;2.23;;;20.80;99.90;;;;;;5031449;28;20022;-90
2022/08/04 04:30:06;;;;;;;2.35;1.92;;;20.90;99.90;;;;;;5024650;28;20060;-90
2022/08/04 04:33:01;;;;;;;2.30;1.77;;;20.90;99.90;;;;;;5026386;28;20136;-90
2022/08/04 04:35:37;;;;;;;3.25;1.83;;;21.00;99.90;;;;;;5025200;28;20097;-89
2022/08/04 04:42:12;;;;;;;5.15;1.80;;;21.10;99.90;;;;;;5026370;28;20120;-89
2022/08/04 04:45:13;;;;;;;2.25;1.40;;;21.20;99.90;;;;;;4940319;28;20078;-91
2022/08/04 04:47:54;;;;;;;2.00;1.70;;;21.20;99.90;;;;;;5017598;28;20026;-90
2022/08/04 04:50:35;;;;;;;2.38;1.80;;;21.30;99.90;;;;;;5012363;28;20030;-89
2022/08/04 04:53:01;;;;;;;;;;;21.40;99.90;;;;;;5029564;28;20037;-90
2022/08/04 04:55:33;;;;;;;5.40;2.20;;;21.40;99.90;;;;;;5012356;28;19916;-89
2022/08/04 04:58:00;;;;;;;8.65;1.67;;;21.40;99.90;;;;;;5011642;28;20029;-89
2022/08/04 05:01:12;;;;;;;4.75;2.20;;;21.50;99.90;;;;;;5015070;28;20054;-90
2022/08/04 05:03:49;;;;;;;2.72;1.90;;;21.60;99.90;;;;;;5015566;28;20037;-90
2022/08/04 05:06:33;;;;;;;3.58;1.75;;;21.60;99.90;;;;;;5004365;28;20033;-89
2022/08/04 05:09:26;;;;;;;4.53;1.80;;;21.70;99.90;;;;;;5011928;28;20038;-90
2022/08/04 05:11:58;;;;;;;6.25;2.03;;;21.80;99.90;;;;;;5019505;28;20053;-89
2022/08/04 05:14:34;;;;;;;3.53;2.10;;;22.00;99.90;;;;;;5023530;28;20034;-91
2022/08/04 05:17:09;;;;;;;2.10;1.90;;;22.10;99.90;;;;;;5027369;28;20030;-89
2022/08/04 05:19:59;;;;;;;4.45;1.92;;;22.20;99.90;;;;;;5018106;28;20417;-88
2022/08/04 05:22:31;;;;;;;3.35;2.05;;;22.30;99.90;;;;;;5004435;28;20413;-89
2022/08/04 05:25:22;;;;;;;2.15;1.83;;;22.40;99.90;;;;;;5006737;28;20029;-89
2022/08/04 05:28:36;;;;;;;4.47;1.80;;;22.50;99.90;;;;;;5010551;28;20029;-89
2022/08/04 05:31:10;;;;;;;4.68;2.08;;;22.60;99.90;;;;;;4993487;28;20034;-89
2022/08/04 05:33:47;;;;;;;4.25;1.92;;;22.80;99.90;;;;;;5008682;28;20026;-91
2022/08/04 05:36:21;;;;;;;3.40;2.20;;;22.90;99.90;;;;;;5005190;28;20033;-90
2022/08/04 05:38:54;;;;;;;2.25;2.00;;;23.00;99.90;;;;;;4997927;28;20045;-88
2022/08/04 05:41:21;;;;;;;3.72;1.90;;;23.10;99.90;;;;;;5011599;28;20029;-89
2022/08/04 05:43:48;;;;;;;3.55;1.80;;;23.10;99.90;;;;;;5012024;28;20355;-89
2022/08/04 05:46:16;;;;;;;3.78;2.00;;;23.20;99.90;;;;;;5012921;28;20029;-88
2022/08/04 05:48:44;;;;;;;2.95;1.60;;;23.30;99.90;;;;;;5013281;28;20030;-90
2022/08/04 05:51:11;;;;;;;9.52;1.95;;;23.40;99.90;;;;;;5006229;28;20022;-90
2022/08/04 05:53:38;;;;;;;5.28;1.90;;;23.50;99.90;;;;;;5021482;28;20120;-88
2022/08/04 05:56:05;;;;;;;4.10;1.95;;;23.50;99.90;;;;;;5002364;28;20034;-89
2022/08/04 05:58:33;;;;;;;2.00;1.50;;;23.70;99.90;;;;;;5021998;28;20048;-89
2022/08/04 06:01:00;;;;;;;4.95;2.17;;;23.80;99.90;;;;;;5019288;28;20110;-89
2022/08/04 06:03:29;;;;;;;2.50;1.80;;;23.80;99.90;;;;;;5008454;28;20053;-88
2022/08/04 06:05:57;;;;;;;7.95;1.98;;;23.90;99.90;;;;;;5013457;28;20370;-87
2022/08/04 06:08:23;;;;;;;3.60;1.80;;;24.00;99.90;;;;;;5023672;28;20461;-89
2022/08/04 06:10:50;;;;;;;5.10;1.73;;;24.10;99.90;;;;;;5019967;28;20026;-88
2022/08/04 06:13:19;;;;;;;3.10;1.60;;;24.20;99.90;;;;;;5012178;28;20068;-88
2022/08/04 06:15:49;;;;;;;3.60;1.63;;;24.30;99.90;;;;;;5025083;28;20465;-88
2022/08/04 06:18:17;;;;;;;2.35;1.70;;;24.40;99.90;;;;;;5023344;28;20022;-88
2022/08/04 06:20:45;;;;;;;1.80;1.55;;;24.50;99.90;;;;;;5009639;28;20026;-88
2022/08/04 06:23:15;;;;;;;2.88;1.83;;;24.60;99.50;;;;;;5009338;28;20022;-88
2022/08/04 06:25:47;;;;;;;7.90;2.13;;;24.60;99.70;;;;;;5003119;28;20044;-88
2022/08/04 06:28:15;;;;;;;3.10;1.67;;;24.70;99.90;;;;;;5014229;28;20059;-88
2022/08/04 06:30:46;;;;;;;3.15;1.80;;;24.70;99.50;;;;;;5030102;28;20029;-88
2022/08/04 06:33:32;;;;;;;2.25;1.50;;;24.80;98.70;;;;;;5014290;28;20037;-88
2022/08/04 06:36:00;;;;;;;4.63;1.60;;;25.00;98.50;;;;;;5017819;28;20072;-88
2022/08/04 06:38:28;;;;;;;4.40;1.98;;;25.00;98.70;;;;;;5008416;28;20029;-89
2022/08/04 06:40:59;;;;;;;2.60;1.80;;;25.20;98.00;;;;;;5020868;28;20026;-88
2022/08/04 06:43:26;;;;;;;1.60;1.50;;;25.20;98.40;;;;;;5023051;28;20084;-89
2022/08/04 06:45:54;;;;;;;6.00;2.00;;;25.20;97.50;;;;;;5000196;28;20124;-88
2022/08/04 06:48:21;;;;;;;9.18;2.25;;;25.30;97.80;;;;;;5010747;28;20034;-88
2022/08/04 06:50:48;;;;;;;3.53;1.88;;;25.30;97.90;;;;;;5018377;28;20030;-89
2022/08/04 06:53:15;;;;;;;3.97;1.80;;;25.40;97.40;;;;;;5022223;28;20089;-88
2022/08/04 06:55:44;;;;;;;7.20;1.70;;;25.50;96.80;;;;;;5026315;28;20167;-88
2022/08/04 06:58:11;;;;;;;10.23;1.80;;;25.50;97.10;;;;;;5019210;28;20022;-89
2022/08/04 07:00:39;;;;;;;3.35;2.20;;;25.50;97.30;;;;;;5008740;28;20026;-91
2022/08/04 07:03:06;;;;;;;4.75;1.88;;;25.60;96.70;;;;;;5020925;28;20029;-87
2022/08/04 07:05:33;;;;;;;4.43;1.70;;;25.60;97.10;;;;;;5024792;28;20040;-88
2022/08/04 07:07:59;;;;;;;3.85;1.95;;;25.60;97.10;;;;;;5032305;28;20540;-89
2022/08/04 07:10:26;;;;;;;3.03;1.80;;;25.70;97.00;;;;;;5024497;28;20033;-89
2022/08/04 07:12:53;;;;;;;4.88;1.90;;;25.80;96.80;;;;;;5016377;28;20106;-88
2022/08/04 07:15:20;;;;;;;5.53;2.42;;;25.90;96.60;;;;;;5027091;28;20026;-91
2022/08/04 07:17:48;;;;;;;4.82;2.00;;;25.90;96.50;;;;;;5033436;28;20032;-92
2022/08/04 07:20:14;;;;;;;2.78;1.83;;;26.00;96.30;;;;;;5025513;28;20053;-92
2022/08/04 07:22:41;;;;;;;4.57;1.92;;;26.20;96.70;;;;;;5021869;28;20065;-94
2022/08/04 07:25:11;;;;;;;2.17;1.88;;;26.30;96.30;;;;;;5030518;28;20053;-88
2022/08/04 07:27:38;;;;;;;5.65;2.08;;;26.30;96.00;;;;;;5013993;28;20033;-89
2022/08/04 07:30:07;;;;;;;4.63;1.80;;;26.30;96.20;;;;;;5006161;28;20046;-89
2022/08/04 07:32:48;;;;;;;2.70;1.83;;;26.40;96.10;;;;;;5020795;28;20033;-88
2022/08/04 07:35:15;;;;;;;4.00;1.98;;;26.40;95.00;;;;;;5001217;28;20440;-88
2022/08/04 07:37:40;;;;;;;2.13;1.90;;;26.50;95.40;;;;;;5025752;28;20104;-90
2022/08/04 07:40:07;;;;;;;3.13;2.10;;;26.60;95.10;;;;;;5032012;28;20425;-89
2022/08/04 07:42:33;;;;;;;2.15;1.95;;;26.70;95.30;;;;;;5013737;28;20040;-88
2022/08/04 07:44:59;;;;;;;3.13;1.83;;;26.80;95.20;;;;;;5029566;28;20066;-88
2022/08/04 07:47:26;;;;;;;2.17;1.70;;;26.80;94.50;;;;;;5016243;28;20354;-89
2022/08/04 07:49:52;;;;;;;4.57;2.20;;;26.80;94.40;;;;;;5006685;28;20416;-89
2022/08/04 07:52:18;;;;;;;7.03;2.00;;;27.00;94.90;;;;;;5014627;28;20026;-89
2022/08/04 07:54:45;;;;;;;2.53;1.90;;;27.10;94.50;;;;;;5006294;28;20026;-88
2022/08/04 07:57:10;;;;;;;3.70;1.80;;;27.20;94.10;;;;;;5011319;28;20018;-89
2022/08/04 07:59:36;;;;;;;5.82;1.95;;;27.30;94.60;;;;;;5026846;28;20378;-89
2022/08/04 08:02:02;;;;;;;3.72;1.75;;;27.50;93.50;;;;;;5006733;28;20029;-90
2022/08/04 08:04:29;;;;;;;4.05;2.08;;;27.50;92.90;;;;;;5026666;28;20097;-89
2022/08/04 08:06:56;;;;;;;6.55;1.60;;;27.50;92.90;;;;;;5006548;28;20366;-90
2022/08/04 08:09:22;;;;;;;6.85;1.90;;;27.60;92.80;;;;;;5013419;28;20037;-89
2022/08/04 08:12:06;;;;;;;1.77;1.60;;;27.60;92.40;;;;;;5020355;28;20063;-90
2022/08/04 08:14:33;;;;;;;4.93;1.75;;;27.70;93.10;;;;;;5027523;28;20032;-92
2022/08/04 08:17:01;;;;;;;1.90;1.60;;;27.80;92.30;;;;;;5018711;28;20038;-89
2022/08/04 08:19:27;;;;;;;2.50;1.90;;;27.80;92.10;;;;;;5027290;28;20014;-89
2022/08/04 08:21:53;;;;;;;7.38;3.10;;;28.20;92.00;;;;;;5015527;28;20036;-89
2022/08/04 08:24:19;;;;;;;1.92;1.73;;;29.40;90.30;;;;;;5026494;28;20474;-90
2022/08/04 08:26:45;;;;;;;3.08;1.60;;;30.80;88.10;;;;;;5013737;28;20026;-90
2022/08/04 08:29:11;;;;;;;1.60;1.50;;;32.30;83.80;;;;;;5010312;28;20037;-90
2022/08/04 08:31:37;;;;;;;2.75;1.60;;;33.50;80.00;;;;;;5029513;28;20083;-90
2022/08/04 08:34:03;;;;;;;2.35;1.58;;;34.00;74.90;;;;;;5015803;28;20041;-90
2022/08/04 08:36:44;;;;;;;3.72;1.50;;;34.20;71.70;;;;;;5009457;28;20036;-90
2022/08/04 08:39:13;;;;;;;;;;;33.80;71.10;;;;;;5013313;28;20508;-89
2022/08/04 08:41:50;;;;;;;1.92;1.50;;;33.70;69.40;;;;;;5009266;28;19916;-89
2022/08/04 08:44:53;;;;;;;3.85;2.30;;;34.00;69.00;;;;;;5026656;28;20041;-90
2022/08/04 08:47:34;;;;;;;4.35;1.40;;;33.90;68.00;;;;;;5015434;28;20157;-88
2022/08/04 08:50:17;;;;;;;2.33;1.50;;;33.60;66.40;;;;;;5017057;28;20429;-89
2022/08/04 08:52:46;;;;;;;1.77;1.60;;;33.90;66.70;;;;;;5026514;28;20059;-89
2022/08/04 08:55:32;;;;;;;4.78;1.58;;;34.40;65.10;;;;;;5015038;28;20213;-89
2022/08/04 08:58:08;;;;;;;1.67;1.40;;;34.70;64.70;;;;;;5024196;28;20429;-90
2022/08/04 09:00:57;;;;;;;4.22;1.60;;;34.60;63.70;;;;;;5014000;28;20079;-90
2022/08/04 09:03:34;;;;;;;3.55;1.52;;;35.10;62.50;;;;;;5012045;28;20045;-81
2022/08/04 09:06:29;;;;;;;7.53;1.70;;;35.70;61.20;;;;;;5016713;28;20116;-90
2022/08/04 09:09:29;;;;;;;4.13;1.60;;;35.40;60.10;;;;;;5019524;28;20496;-88
2022/08/04 09:12:12;;;;;;;3.72;2.08;;;35.90;59.60;;;;;;5012274;28;20029;-90
2022/08/04 09:14:57;;;;;;;2.22;1.65;;;36.50;58.90;;;;;;5013583;28;20041;-89
2022/08/04 09:17:29;;;;;;;1.83;1.70;;;36.20;57.90;;;;;;5007396;28;20575;-89
2022/08/04 09:20:06;;;;;;;6.95;1.80;;;36.00;58.10;;;;;;5021632;28;20061;-88
2022/08/04 09:22:38;;;;;;;3.88;2.00;;;36.00;57.80;;;;;;5014315;28;20030;-90
2022/08/04 09:25:11;;;;;;;5.65;1.70;;;36.50;58.00;;;;;;5019881;28;20030;-89
2022/08/04 09:28:01;;;;;;;2.65;1.40;;;37.60;57.30;;;;;;5007233;28;20033;-89
2022/08/04 09:30:38;;;;;;;9.57;1.67;;;38.00;55.60;;;;;;5011820;28;20032;-89
2022/08/04 09:33:24;;;;;;;5.65;1.88;;;38.30;55.00;;;;;;5014158;28;20030;-89
2022/08/04 09:36:07;;;;;;;5.78;1.85;;;38.80;54.10;;;;;;5024471;28;20025;-89
2022/08/04 09:39:08;;;;;;;3.78;1.80;;;39.30;53.00;;;;;;5008305;28;20061;-89
2022/08/04 09:41:44;;;;;;;;;;;39.40;52.10;;;;;;5016773;28;20029;-89
2022/08/04 09:44:42;;;;;;;5.07;2.08;;;39.30;52.50;;;;;;5010455;28;19933;-89
2022/08/04 09:47:25;;;;;;;2.70;2.00;;;39.00;51.50;;;;;;5014413;28;20037;-89
2022/08/04 09:50:27;;;;;;;2.25;1.80;;;39.20;51.50;;;;;;5007899;28;20432;-90
2022/08/04 09:53:04;;;;;;;2.65;1.83;;;39.40;51.40;;;;;;5009142;28;20128;-90
2022/08/04 09:55:36;;;;;;;3.85;2.30;;;40.00;50.80;;;;;;5022110;28;20480;-90
2022/08/04 09:58:07;;;;;;;5.20;2.20;;;39.80;49.90;;;;;;5021712;28;20029;-90
2022/08/04 10:00:52;;;;;;;2.47;2.10;;;39.20;50.60;;;;;;5022329;28;20144;-90
2022/08/04 10:03:21;;;;;;;4.07;1.85;;;38.60;52.10;;;;;;5011291;28;20084;-89
2022/08/04 10:06:33;;;;;;;5.18;2.35;;;38.50;52.20;;;;;;5001353;28;20021;-90
2022/08/04 10:09:46;;;;;;;4.18;1.88;;;37.90;51.80;;;;;;4968029;28;20044;-89
2022/08/04 10:12:21;;;;;;;9.73;2.45;;;37.60;52.90;;;;;;4961570;28;20070;-89
2022/08/04 10:15:12;;;;;;;4.78;2.65;;;37.30;53.20;;;;;;5022282;28;20034;-91
2022/08/04 10:18:14;;;;;;;2.85;1.95;;;37.10;53.00;;;;;;5013145;28;20025;-91
2022/08/04 10:20:55;;;;;;;3.63;2.58;;;36.50;53.60;;;;;;5006287;28;20024;-89
2022/08/04 10:23:30;;;;;;;6.05;2.00;;;36.10;53.00;;;;;;5014207;28;20116;-90
2022/08/04 10:26:04;;;;;;;6.78;2.15;;;36.00;54.30;;;;;;5023106;28;20041;-90
2022/08/04 10:28:35;;;;;;;2.30;2.00;;;36.00;54.30;;;;;;5020062;28;20112;-91
2022/08/04 10:31:06;;;;;;;3.97;2.17;;;36.00;54.10;;;;;;5028454;28;20071;-90
2022/08/04 10:34:16;;;;;;;8.23;2.42;;;35.90;53.50;;;;;;5011258;28;20034;-91
2022/08/04 10:37:14;;;;;;;7.57;1.70;;;36.20;53.40;;;;;;5011067;28;20038;-90
2022/08/04 10:42:55;;;;;;;2.33;1.88;;;36.70;53.00;;;;;;5025855;28;20029;-91
2022/08/04 10:45:26;;;;;;;3.15;1.92;;;37.40;52.00;;;;;;5015017;28;20052;-90
2022/08/04 10:48:04;;;;;;;2.17;1.88;;;37.60;51.10;;;;;;5033499;28;20029;-90
2022/08/04 10:50:31;;;;;;;2.20;1.83;;;38.20;51.60;;;;;;5014067;28;20037;-90
2022/08/04 10:53:02;;;;;;;4.82;1.80;;;38.40;51.50;;;;;;5015718;28;20034;-90
2022/08/04 10:55:45;;;;;;;2.42;2.10;;;38.30;50.60;;;;;;5029105;28;20025;-89
2022/08/04 10:58:18;;;;;;;2.50;1.67;;;38.40;50.60;;;;;;5007725;28;20363;-90
2022/08/04 11:00:45;;;;;;;2.58;2.08;;;38.40;52.00;;;;;;5021885;28;20029;-90
2022/08/04 11:03:39;;;;;;;4.20;1.75;;;38.20;51.30;;;;;;5030102;28;20025;-90
2022/08/04 11:06:05;;;;;;;3.05;2.45;;;38.30;51.40;;;;;;5032954;28;20119;-92
2022/08/04 11:08:49;;;;;;;2.85;2.03;;;38.30;51.30;;;;;;5016050;28;20036;-90
2022/08/04 11:11:23;;;;;;;4.38;2.03;;;38.60;49.60;;;;;;5014689;28;20033;-89
2022/08/04 11:14:21;;;;;;;6.82;2.30;;;38.70;50.30;;;;;;5009701;28;20030;-91
2022/08/04 11:17:05;;;;;;;5.68;2.58;;;39.10;50.20;;;;;;5026121;28;20021;-90
2022/08/04 11:19:37;;;;;;;3.05;2.30;;;38.40;50.50;;;;;;5012463;28;20033;-91
2022/08/04 11:22:10;;;;;;;7.90;2.22;;;37.90;50.20;;;;;;5027049;28;20035;-93
2022/08/04 11:24:49;;;;;;;4.63;1.90;;;37.80;51.70;;;;;;5029283;28;20028;-90
2022/08/04 11:27:24;;;;;;;2.43;1.73;;;38.40;51.10;;;;;;5026768;28;20048;-89
2022/08/04 11:30:05;;;;;;;1.73;1.63;;;38.20;49.40;;;;;;5027807;28;20277;-91
2022/08/04 11:32:42;;;;;;;2.67;1.70;;;38.10;48.70;;;;;;5027749;28;20100;-90
2022/08/04 11:35:15;;;;;;;3.63;1.95;;;38.40;48.80;;;;;;5011555;28;20067;-90
2022/08/04 11:38:01;;;;;;;5.20;2.15;;;38.50;48.20;;;;;;5006957;28;20029;-92
2022/08/04 11:40:41;;;;;;;5.05;2.13;;;38.20;48.90;;;;;;5019320;28;20626;-90
2022/08/04 11:43:23;;;;;;;2.75;1.90;;;38.10;47.10;;;;;;5026902;28;20131;-91
2022/08/04 11:45:59;;;;;;;2.08;1.88;;;38.30;47.80;;;;;;5018276;28;20501;-91
2022/08/04 11:48:34;;;;;;;5.10;2.10;;;38.20;47.80;;;;;;5022804;28;20029;-92
2022/08/04 11:51:04;;;;;;;4.93;1.80;;;37.90;47.60;;;;;;5027406;28;20029;-92
2022/08/04 11:53:31;;;;;;;2.67;1.85;;;36.80;49.70;;;;;;5030269;28;20084;-89
2022/08/04 11:56:01;;;;;;;4.40;2.03;;;37.00;48.60;;;;;;5024513;28;20124;-90
2022/08/04 11:58:28;;;;;;;3.38;2.10;;;37.50;48.40;;;;;;5030031;28;20018;-89
2022/08/04 12:01:19;;;;;;;3.67;2.17;;;37.30;48.00;;;;;;5001227;28;20350;-89
2022/08/04 12:03:58;;;;;;;5.05;1.85;;;37.20;48.40;;;;;;5012997;28;20029;-90
2022/08/04 12:06:26;;;;;;;5.95;1.80;;;36.80;48.60;;;;;;5021185;28;20124;-90
2022/08/04 12:09:16;;;;;;;4.15;1.90;;;36.40;49.10;;;;;;5016036;28;20390;-89
2022/08/04 12:11:54;;;;;;;4.05;2.33;;;36.20;49.20;;;;;;5027137;28;20040;-90
2022/08/04 12:14:59;;;;;;;2.17;1.98;;;36.00;48.90;;;;;;5014287;28;20069;-90
2022/08/04 12:17:31;;;;;;;1.95;1.85;;;35.60;49.60;;;;;;5021469;28;20022;-90
2022/08/04 12:20:02;;;;;;;4.68;2.30;;;35.60;49.30;;;;;;5015316;28;20803;-90
2022/08/04 12:22:33;;;;;;;3.25;2.25;;;35.30;49.90;;;;;;5020905;28;20484;-89
2022/08/04 12:25:08;;;;;;;5.03;2.38;;;35.20;50.30;;;;;;5028650;28;20099;-91
2022/08/04 12:27:54;;;;;;;3.33;2.20;;;35.20;51.00;;;;;;5024860;28;20022;-88
2022/08/04 12:30:21;;;;;;;5.35;2.33;;;35.00;50.40;;;;;;5019899;28;20064;-89
2022/08/04 12:33:13;;;;;;;10.20;2.30;;;34.70;52.00;;;;;;4999310;28;20032;-91
2022/08/04 12:35:48;;;;;;;2.75;2.42;;;34.60;51.50;;;;;;5026006;28;20029;-89
2022/08/04 12:38:14;;;;;;;3.50;2.75;;;34.80;51.30;;;;;;5018326;28;20531;-88
2022/08/04 12:40:45;;;;;;;4.35;3.10;;;35.00;50.90;;;;;;5007305;28;20045;-89
2022/08/04 12:43:37;;;;;;;3.97;2.75;;;35.20;50.90;;;;;;5022442;28;20029;-90
2022/08/04 12:46:16;;;;;;;7.20;2.40;;;35.40;50.90;;;;;;5016514;28;20408;-89
2022/08/04 12:49:01;;;;;;;5.22;2.80;;;35.40;50.80;;;;;;5008652;28;20069;-89
2022/08/04 12:51:27;;;;;;;3.10;2.60;;;35.50;51.60;;;;;;5021936;28;20057;-91
2022/08/04 12:53:53;;;;;;;2.50;2.30;;;35.90;51.40;;;;;;5011805;28;20080;-90
2022/08/04 12:56:26;;;;;;;2.95;2.63;;;36.20;50.60;;;;;;5012762;28;20032;-89
2022/08/04 12:58:59;;;;;;;3.00;2.40;;;36.70;50.10;;;;;;5003801;28;20026;-90
2022/08/04 13:01:25;;;;;;;5.22;2.60;;;37.00;50.00;;;;;;5002406;28;20022;-90
2022/08/04 13:03:57;;;;;;;4.18;2.55;;;37.20;48.90;;;;;;5015376;28;20065;-88
2022/08/04 13:06:27;;;;;;;5.15;2.58;;;36.30;49.90;;;;;;5018384;28;20036;-90
2022/08/04 13:08:54;;;;;;;3.40;3.08;;;36.10;50.00;;;;;;5024011;28;20029;-89
2022/08/04 13:11:22;;;;;;;2.83;2.50;;;36.50;49.80;;;;;;5025573;28;20053;-89
2022/08/04 13:13:54;;;;;;;5.68;2.28;;;37.30;48.80;;;;;;5012591;28;20116;-89
2022/08/04 13:16:29;;;;;;;3.20;2.67;;;37.60;48.30;;;;;;5011125;28;20056;-89
2022/08/04 13:18:56;;;;;;;6.03;2.50;;;37.20;48.00;;;;;;5012444;28;20469;-89
2022/08/04 13:21:44;;;;;;;3.47;2.50;;;37.10;48.40;;;;;;5021650;28;20025;-89
2022/08/04 13:24:13;;;;;;;4.93;2.75;;;37.20;48.20;;;;;;5025094;28;20088;-90
2022/08/04 13:26:58;;;;;;;5.88;2.45;;;37.20;48.40;;;;;;5013580;28;20097;-90
2022/08/04 13:29:38;;;;;;;7.45;2.88;;;37.30;48.60;;;;;;5007240;28;20049;-90
2022/08/04 13:32:06;;;;;;;5.15;2.65;;;37.30;50.00;;;;;;5005377;28;20029;-90
2022/08/04 13:34:33;;;;;;;4.60;2.40;;;37.10;48.80;;;;;;5013520;28;20252;-90
2022/08/04 13:37:01;;;;;;;2.97;2.72;;;36.30;48.10;;;;;;4999522;28;20026;-90
2022/08/04 13:39:28;;;;;;;9.23;2.40;;;36.10;49.10;;;;;;5029926;28;20029;-91
2022/08/04 13:41:58;;;;;;;4.00;2.40;;;36.30;49.10;;;;;;5019585;28;20037;-91
2022/08/04 13:44:30;;;;;;;4.63;2.40;;;36.40;49.30;;;;;;5026427;28;20389;-90
2022/08/04 13:47:07;;;;;;;3.30;2.13;;;36.50;48.80;;;;;;5020850;28;20091;-91
2022/08/04 13:49:33;;;;;;;2.90;2.53;;;37.10;47.80;;;;;;5029150;28;20037;-90
2022/08/04 13:52:04;;;;;;;5.97;2.63;;;37.60;48.40;;;;;;5017347;28;20038;-90
2022/08/04 13:54:46;;;;;;;6.82;2.40;;;37.40;46.70;;;;;;5028868;28;20122;-89
2022/08/04 13:57:28;;;;;;;3.38;2.20;;;37.00;47.40;;;;;;5017185;28;20124;-91